sensor_id;sensor_type;location;lat;lon;timestamp;P1;durP1;ratioP1;P2;durP2;ratioP2
36817;SDS011;22761;51.542;16.450;2024-03-08T00:45:55;69.30;;;31.60;;
36817;SDS011;22761;51.542;16.450;2024-03-08T00:49:19;66.90;;;33.00;;
36817;SDS011;22761;51.542;16.450;2024-03-08T00:52:02;63.20;;;32.50;;
36817;SDS011;22761;51.542;16.450;2024-03-08T00:54:45;64.10;;;31.80;;
36817;SDS011;22761;51.542;16.450;2024-03-08T00:58:09;62.90;;;31.70;;
36817;SDS011;22761;51.542;16.450;2024-03-08T01:00:44;66.20;;;32.30;;
36817;SDS011;22761;51.542;16.450;2024-03-08T01:03:44;63.60;;;33.00;;
36817;SDS011;22761;51.542;16.450;2024-03-08T01:06:25;63.30;;;32.90;;
36817;SDS011;22761;51.542;16.450;2024-03-08T01:08:59;68.80;;;34.00;;
36817;SDS011;22761;51.542;16.450;2024-03-08T01:11:49;48.50;;;23.60;;
36817;SDS011;22761;51.542;16.450;2024-03-08T01:17:22;64.60;;;32.20;;
36817;SDS011;22761;51.542;16.450;2024-03-08T01:19:55;66.30;;;31.90;;
36817;SDS011;22761;51.542;16.450;2024-03-08T01:22:40;65.40;;;32.10;;
36817;SDS011;22761;51.542;16.450;2024-03-08T01:25:32;61.10;;;31.50;;
36817;SDS011;22761;51.542;16.450;2024-03-08T01:28:25;61.00;;;30.70;;
36817;SDS011;22761;51.542;16.450;2024-03-08T01:30:59;66.00;;;33.10;;
36817;SDS011;22761;51.542;16.450;2024-03-08T01:33:34;72.10;;;34.40;;
36817;SDS011;22761;51.542;16.450;2024-03-08T01:36:16;72.60;;;34.80;;
36817;SDS011;22761;51.542;16.450;2024-03-08T01:38:51;65.60;;;32.10;;
36817;SDS011;22761;51.542;16.450;2024-03-08T01:41:21;76.90;;;35.50;;
36817;SDS011;22761;51.542;16.450;2024-03-08T01:43:53;71.90;;;35.30;;
36817;SDS011;22761;51.542;16.450;2024-03-08T01:46:26;71.60;;;33.20;;
36817;SDS011;22761;51.542;16.450;2024-03-08T01:49:02;71.10;;;33.20;;
36817;SDS011;22761;51.542;16.450;2024-03-08T01:51:38;68.60;;;31.20;;
36817;SDS011;22761;51.542;16.450;2024-03-08T01:54:11;65.20;;;32.30;;
36817;SDS011;22761;51.542;16.450;2024-03-08T01:56:54;60.50;;;31.30;;
36817;SDS011;22761;51.542;16.450;2024-03-08T01:59:34;64.50;;;31.70;;
36817;SDS011;22761;51.542;16.450;2024-03-08T02:02:07;64.30;;;30.80;;
36817;SDS011;22761;51.542;16.450;2024-03-08T02:04:46;66.50;;;33.50;;
36817;SDS011;22761;51.542;16.450;2024-03-08T02:07:50;57.20;;;30.80;;
36817;SDS011;22761;51.542;16.450;2024-03-08T02:10:37;62.20;;;30.50;;
36817;SDS011;22761;51.542;16.450;2024-03-08T02:13:27;61.60;;;31.20;;
36817;SDS011;22761;51.542;16.450;2024-03-08T02:16:24;58.90;;;30.60;;
36817;SDS011;22761;51.542;16.450;2024-03-08T02:19:01;62.40;;;31.10;;
36817;SDS011;22761;51.542;16.450;2024-03-08T02:21:47;60.70;;;30.30;;
36817;SDS011;22761;51.542;16.450;2024-03-08T02:24:20;62.30;;;31.50;;
36817;SDS011;22761;51.542;16.450;2024-03-08T02:27:29;59.50;;;30.80;;
36817;SDS011;22761;51.542;16.450;2024-03-08T02:30:26;60.70;;;31.10;;
36817;SDS011;22761;51.542;16.450;2024-03-08T02:33:05;66.00;;;31.20;;
36817;SDS011;22761;51.542;16.450;2024-03-08T02:35:44;63.20;;;32.70;;
36817;SDS011;22761;51.542;16.450;2024-03-08T02:38:29;62.00;;;30.30;;
36817;SDS011;22761;51.542;16.450;2024-03-08T02:41:40;58.50;;;29.40;;
36817;SDS011;22761;51.542;16.450;2024-03-08T02:44:08;60.70;;;30.20;;
36817;SDS011;22761;51.542;16.450;2024-03-08T02:46:36;57.90;;;29.10;;
36817;SDS011;22761;51.542;16.450;2024-03-08T02:49:05;57.60;;;29.40;;
36817;SDS011;22761;51.542;16.450;2024-03-08T02:51:34;56.20;;;29.80;;
36817;SDS011;22761;51.542;16.450;2024-03-08T02:54:03;58.00;;;30.40;;
36817;SDS011;22761;51.542;16.450;2024-03-08T02:56:32;57.80;;;28.60;;
36817;SDS011;22761;51.542;16.450;2024-03-08T02:59:03;55.20;;;28.90;;
36817;SDS011;22761;51.542;16.450;2024-03-08T03:01:31;56.50;;;29.80;;
36817;SDS011;22761;51.542;16.450;2024-03-08T03:04:00;59.70;;;31.80;;
36817;SDS011;22761;51.542;16.450;2024-03-08T03:06:28;59.60;;;31.30;;
36817;SDS011;22761;51.542;16.450;2024-03-08T03:08:56;58.20;;;30.40;;
36817;SDS011;22761;51.542;16.450;2024-03-08T03:11:25;62.90;;;30.60;;
36817;SDS011;22761;51.542;16.450;2024-03-08T03:13:53;58.80;;;29.80;;
36817;SDS011;22761;51.542;16.450;2024-03-08T03:16:21;57.10;;;29.20;;
36817;SDS011;22761;51.542;16.450;2024-03-08T03:18:50;57.60;;;29.50;;
36817;SDS011;22761;51.542;16.450;2024-03-08T03:21:19;62.40;;;29.00;;
36817;SDS011;22761;51.542;16.450;2024-03-08T03:23:47;59.80;;;31.30;;
36817;SDS011;22761;51.542;16.450;2024-03-08T03:26:16;61.60;;;31.80;;
36817;SDS011;22761;51.542;16.450;2024-03-08T03:28:45;63.00;;;30.20;;
36817;SDS011;22761;51.542;16.450;2024-03-08T03:31:13;56.90;;;30.40;;
36817;SDS011;22761;51.542;16.450;2024-03-08T03:33:42;62.60;;;32.20;;
36817;SDS011;22761;51.542;16.450;2024-03-08T03:36:11;62.10;;;29.90;;
36817;SDS011;22761;51.542;16.450;2024-03-08T03:38:42;62.20;;;31.00;;
36817;SDS011;22761;51.542;16.450;2024-03-08T03:41:11;61.60;;;30.70;;
36817;SDS011;22761;51.542;16.450;2024-03-08T03:43:39;59.40;;;32.10;;
36817;SDS011;22761;51.542;16.450;2024-03-08T03:46:07;68.60;;;34.80;;
36817;SDS011;22761;51.542;16.450;2024-03-08T03:48:38;62.70;;;31.30;;
36817;SDS011;22761;51.542;16.450;2024-03-08T03:51:07;59.00;;;30.70;;
36817;SDS011;22761;51.542;16.450;2024-03-08T03:53:38;56.10;;;29.90;;
36817;SDS011;22761;51.542;16.450;2024-03-08T03:56:06;60.90;;;30.50;;
36817;SDS011;22761;51.542;16.450;2024-03-08T03:58:35;64.20;;;32.40;;
36817;SDS011;22761;51.542;16.450;2024-03-08T04:01:06;73.10;;;35.00;;
36817;SDS011;22761;51.542;16.450;2024-03-08T04:03:34;66.40;;;32.50;;
36817;SDS011;22761;51.542;16.450;2024-03-08T04:06:03;64.60;;;32.60;;
36817;SDS011;22761;51.542;16.450;2024-03-08T04:08:32;60.70;;;32.60;;
36817;SDS011;22761;51.542;16.450;2024-03-08T04:11:02;66.80;;;32.40;;
36817;SDS011;22761;51.542;16.450;2024-03-08T04:13:30;57.60;;;29.00;;
36817;SDS011;22761;51.542;16.450;2024-03-08T04:15:59;61.70;;;30.80;;
36817;SDS011;22761;51.542;16.450;2024-03-08T04:18:27;58.60;;;29.80;;
36817;SDS011;22761;51.542;16.450;2024-03-08T04:20:56;64.50;;;31.00;;
36817;SDS011;22761;51.542;16.450;2024-03-08T04:23:24;60.90;;;31.50;;
36817;SDS011;22761;51.542;16.450;2024-03-08T04:25:52;58.60;;;30.50;;
36817;SDS011;22761;51.542;16.450;2024-03-08T04:28:20;63.80;;;31.60;;
36817;SDS011;22761;51.542;16.450;2024-03-08T04:30:48;63.30;;;31.60;;
36817;SDS011;22761;51.542;16.450;2024-03-08T04:33:18;64.20;;;32.40;;
36817;SDS011;22761;51.542;16.450;2024-03-08T04:35:47;60.50;;;30.60;;
36817;SDS011;22761;51.542;16.450;2024-03-08T04:38:15;60.50;;;30.70;;
36817;SDS011;22761;51.542;16.450;2024-03-08T04:40:44;61.70;;;30.80;;
36817;SDS011;22761;51.542;16.450;2024-03-08T04:43:12;59.50;;;29.60;;
36817;SDS011;22761;51.542;16.450;2024-03-08T04:45:42;65.60;;;31.80;;
36817;SDS011;22761;51.542;16.450;2024-03-08T04:48:11;54.40;;;29.90;;
36817;SDS011;22761;51.542;16.450;2024-03-08T04:50:40;64.60;;;29.80;;
36817;SDS011;22761;51.542;16.450;2024-03-08T04:53:08;61.50;;;30.00;;
36817;SDS011;22761;51.542;16.450;2024-03-08T04:55:36;56.20;;;29.70;;
36817;SDS011;22761;51.542;16.450;2024-03-08T04:58:05;57.60;;;29.40;;
36817;SDS011;22761;51.542;16.450;2024-03-08T05:00:33;58.10;;;29.30;;
36817;SDS011;22761;51.542;16.450;2024-03-08T05:03:02;61.50;;;32.20;;
36817;SDS011;22761;51.542;16.450;2024-03-08T05:05:31;59.40;;;30.80;;
36817;SDS011;22761;51.542;16.450;2024-03-08T05:07:59;63.80;;;31.80;;
36817;SDS011;22761;51.542;16.450;2024-03-08T05:10:29;69.80;;;33.30;;
36817;SDS011;22761;51.542;16.450;2024-03-08T05:12:57;73.50;;;36.00;;
36817;SDS011;22761;51.542;16.450;2024-03-08T05:15:25;86.20;;;38.70;;
36817;SDS011;22761;51.542;16.450;2024-03-08T05:17:53;83.80;;;38.20;;
36817;SDS011;22761;51.542;16.450;2024-03-08T05:20:24;87.30;;;36.90;;
36817;SDS011;22761;51.542;16.450;2024-03-08T05:22:52;77.50;;;35.80;;
36817;SDS011;22761;51.542;16.450;2024-03-08T05:25:20;76.30;;;34.90;;
36817;SDS011;22761;51.542;16.450;2024-03-08T05:27:48;73.60;;;34.60;;
36817;SDS011;22761;51.542;16.450;2024-03-08T05:30:16;68.80;;;34.20;;
36817;SDS011;22761;51.542;16.450;2024-03-08T05:32:45;64.70;;;33.30;;
36817;SDS011;22761;51.542;16.450;2024-03-08T05:35:13;68.70;;;34.70;;
36817;SDS011;22761;51.542;16.450;2024-03-08T05:40:12;66.40;;;33.10;;
36817;SDS011;22761;51.542;16.450;2024-03-08T05:42:46;68.50;;;34.50;;
36817;SDS011;22761;51.542;16.450;2024-03-08T05:45:14;64.50;;;33.70;;
36817;SDS011;22761;51.542;16.450;2024-03-08T05:47:43;65.90;;;34.40;;
36817;SDS011;22761;51.542;16.450;2024-03-08T05:50:11;66.00;;;33.90;;
36817;SDS011;22761;51.542;16.450;2024-03-08T05:52:39;72.30;;;34.30;;
36817;SDS011;22761;51.542;16.450;2024-03-08T05:55:07;69.30;;;32.00;;
36817;SDS011;22761;51.542;16.450;2024-03-08T05:57:38;67.70;;;33.10;;
36817;SDS011;22761;51.542;16.450;2024-03-08T06:00:08;75.50;;;35.40;;
36817;SDS011;22761;51.542;16.450;2024-03-08T06:02:40;67.30;;;33.90;;
36817;SDS011;22761;51.542;16.450;2024-03-08T06:05:10;69.30;;;35.10;;
36817;SDS011;22761;51.542;16.450;2024-03-08T06:07:39;67.10;;;31.90;;
36817;SDS011;22761;51.542;16.450;2024-03-08T06:10:09;70.70;;;35.50;;
36817;SDS011;22761;51.542;16.450;2024-03-08T06:12:38;81.30;;;40.10;;
36817;SDS011;22761;51.542;16.450;2024-03-08T06:15:10;84.20;;;40.70;;
36817;SDS011;22761;51.542;16.450;2024-03-08T06:17:42;82.50;;;38.10;;
36817;SDS011;22761;51.542;16.450;2024-03-08T06:20:11;86.00;;;40.90;;
36817;SDS011;22761;51.542;16.450;2024-03-08T06:22:41;88.00;;;41.40;;
36817;SDS011;22761;51.542;16.450;2024-03-08T06:25:10;77.70;;;38.80;;
36817;SDS011;22761;51.542;16.450;2024-03-08T06:27:42;77.10;;;36.80;;
36817;SDS011;22761;51.542;16.450;2024-03-08T06:30:10;66.10;;;33.10;;
36817;SDS011;22761;51.542;16.450;2024-03-08T06:32:40;69.00;;;35.40;;
36817;SDS011;22761;51.542;16.450;2024-03-08T06:35:11;66.30;;;35.40;;
36817;SDS011;22761;51.542;16.450;2024-03-08T06:37:40;67.40;;;35.90;;
36817;SDS011;22761;51.542;16.450;2024-03-08T06:40:10;66.30;;;35.70;;
36817;SDS011;22761;51.542;16.450;2024-03-08T06:42:42;69.90;;;36.20;;
36817;SDS011;22761;51.542;16.450;2024-03-08T06:45:11;64.20;;;33.90;;
36817;SDS011;22761;51.542;16.450;2024-03-08T06:47:41;64.90;;;35.20;;
36817;SDS011;22761;51.542;16.450;2024-03-08T06:50:09;66.80;;;36.00;;
36817;SDS011;22761;51.542;16.450;2024-03-08T06:52:39;66.20;;;34.50;;
36817;SDS011;22761;51.542;16.450;2024-03-08T06:55:08;64.20;;;37.60;;
36817;SDS011;22761;51.542;16.450;2024-03-08T06:57:40;70.30;;;35.50;;
36817;SDS011;22761;51.542;16.450;2024-03-08T07:00:09;67.60;;;34.80;;
36817;SDS011;22761;51.542;16.450;2024-03-08T07:02:42;62.70;;;33.40;;
36817;SDS011;22761;51.542;16.450;2024-03-08T07:05:14;62.20;;;35.30;;
36817;SDS011;22761;51.542;16.450;2024-03-08T07:07:42;64.60;;;33.20;;
36817;SDS011;22761;51.542;16.450;2024-03-08T07:10:11;63.60;;;34.10;;
36817;SDS011;22761;51.542;16.450;2024-03-08T07:12:39;66.80;;;36.30;;
36817;SDS011;22761;51.542;16.450;2024-03-08T07:15:07;64.60;;;33.60;;
36817;SDS011;22761;51.542;16.450;2024-03-08T07:17:35;66.80;;;31.50;;
36817;SDS011;22761;51.542;16.450;2024-03-08T07:20:04;65.40;;;33.90;;
36817;SDS011;22761;51.542;16.450;2024-03-08T07:22:39;59.60;;;33.60;;
36817;SDS011;22761;51.542;16.450;2024-03-08T07:25:08;58.40;;;31.60;;
36817;SDS011;22761;51.542;16.450;2024-03-08T07:27:46;64.80;;;32.90;;
36817;SDS011;22761;51.542;16.450;2024-03-08T07:30:24;56.40;;;31.40;;
36817;SDS011;22761;51.542;16.450;2024-03-08T07:33:12;61.80;;;32.90;;
36817;SDS011;22761;51.542;16.450;2024-03-08T07:35:41;60.70;;;30.90;;
36817;SDS011;22761;51.542;16.450;2024-03-08T07:38:13;52.60;;;30.50;;
36817;SDS011;22761;51.542;16.450;2024-03-08T07:40:43;60.10;;;32.70;;
36817;SDS011;22761;51.542;16.450;2024-03-08T07:43:14;54.50;;;30.30;;
36817;SDS011;22761;51.542;16.450;2024-03-08T07:45:42;53.10;;;30.60;;
36817;SDS011;22761;51.542;16.450;2024-03-08T07:48:10;52.80;;;29.30;;
36817;SDS011;22761;51.542;16.450;2024-03-08T07:50:41;51.10;;;29.40;;
36817;SDS011;22761;51.542;16.450;2024-03-08T07:53:09;53.00;;;28.10;;
36817;SDS011;22761;51.542;16.450;2024-03-08T07:55:38;53.10;;;30.80;;
36817;SDS011;22761;51.542;16.450;2024-03-08T07:58:07;49.80;;;28.60;;
36817;SDS011;22761;51.542;16.450;2024-03-08T08:00:39;62.40;;;33.60;;
36817;SDS011;22761;51.542;16.450;2024-03-08T08:03:07;54.20;;;29.00;;
36817;SDS011;22761;51.542;16.450;2024-03-08T08:05:37;53.30;;;29.50;;
36817;SDS011;22761;51.542;16.450;2024-03-08T08:08:09;52.70;;;28.10;;
36817;SDS011;22761;51.542;16.450;2024-03-08T08:10:39;53.00;;;29.00;;
36817;SDS011;22761;51.542;16.450;2024-03-08T08:13:07;52.50;;;29.90;;
36817;SDS011;22761;51.542;16.450;2024-03-08T08:15:36;52.20;;;28.70;;
36817;SDS011;22761;51.542;16.450;2024-03-08T08:18:04;48.20;;;28.60;;
36817;SDS011;22761;51.542;16.450;2024-03-08T08:23:03;51.30;;;28.00;;
36817;SDS011;22761;51.542;16.450;2024-03-08T08:25:31;51.00;;;27.90;;
36817;SDS011;22761;51.542;16.450;2024-03-08T08:28:03;56.10;;;31.20;;
36817;SDS011;22761;51.542;16.450;2024-03-08T08:30:32;82.50;;;42.10;;
36817;SDS011;22761;51.542;16.450;2024-03-08T08:33:01;52.00;;;28.60;;
36817;SDS011;22761;51.542;16.450;2024-03-08T08:35:30;50.40;;;29.30;;
36817;SDS011;22761;51.542;16.450;2024-03-08T08:38:00;47.20;;;28.20;;
36817;SDS011;22761;51.542;16.450;2024-03-08T08:40:29;47.90;;;29.00;;
36817;SDS011;22761;51.542;16.450;2024-03-08T08:43:00;51.60;;;29.30;;
36817;SDS011;22761;51.542;16.450;2024-03-08T08:45:28;49.70;;;28.80;;
36817;SDS011;22761;51.542;16.450;2024-03-08T08:47:56;44.10;;;27.70;;
36817;SDS011;22761;51.542;16.450;2024-03-08T08:50:25;47.80;;;27.90;;
36817;SDS011;22761;51.542;16.450;2024-03-08T08:52:56;45.10;;;28.10;;
36817;SDS011;22761;51.542;16.450;2024-03-08T08:55:25;42.20;;;26.90;;
36817;SDS011;22761;51.542;16.450;2024-03-08T08:57:54;47.20;;;28.00;;
36817;SDS011;22761;51.542;16.450;2024-03-08T09:00:24;50.80;;;31.20;;
36817;SDS011;22761;51.542;16.450;2024-03-08T09:02:56;43.70;;;28.30;;
36817;SDS011;22761;51.542;16.450;2024-03-08T09:05:26;51.10;;;29.90;;
36817;SDS011;22761;51.542;16.450;2024-03-08T09:07:55;45.70;;;29.50;;
36817;SDS011;22761;51.542;16.450;2024-03-08T09:10:24;44.10;;;27.80;;
36817;SDS011;22761;51.542;16.450;2024-03-08T09:12:58;43.80;;;29.80;;
36817;SDS011;22761;51.542;16.450;2024-03-08T09:15:27;45.40;;;28.70;;
36817;SDS011;22761;51.542;16.450;2024-03-08T09:17:57;46.90;;;29.90;;
36817;SDS011;22761;51.542;16.450;2024-03-08T09:20:27;47.50;;;29.80;;
36817;SDS011;22761;51.542;16.450;2024-03-08T09:22:56;46.00;;;28.10;;
36817;SDS011;22761;51.542;16.450;2024-03-08T09:25:25;43.50;;;28.10;;
36817;SDS011;22761;51.542;16.450;2024-03-08T09:27:54;43.30;;;26.90;;
36817;SDS011;22761;51.542;16.450;2024-03-08T09:30:22;43.30;;;27.40;;
36817;SDS011;22761;51.542;16.450;2024-03-08T09:32:51;45.00;;;28.30;;
36817;SDS011;22761;51.542;16.450;2024-03-08T09:35:21;45.10;;;29.40;;
36817;SDS011;22761;51.542;16.450;2024-03-08T09:37:49;49.80;;;31.60;;
36817;SDS011;22761;51.542;16.450;2024-03-08T09:40:19;46.90;;;28.90;;
36817;SDS011;22761;51.542;16.450;2024-03-08T09:42:48;45.00;;;29.30;;
36817;SDS011;22761;51.542;16.450;2024-03-08T09:45:17;46.30;;;30.00;;
36817;SDS011;22761;51.542;16.450;2024-03-08T09:47:45;40.50;;;28.30;;
36817;SDS011;22761;51.542;16.450;2024-03-08T09:50:13;46.60;;;30.70;;
36817;SDS011;22761;51.542;16.450;2024-03-08T09:52:42;46.40;;;30.10;;
36817;SDS011;22761;51.542;16.450;2024-03-08T09:55:12;40.90;;;28.30;;
36817;SDS011;22761;51.542;16.450;2024-03-08T09:57:40;45.50;;;31.10;;
36817;SDS011;22761;51.542;16.450;2024-03-08T10:00:30;44.60;;;30.40;;
36817;SDS011;22761;51.542;16.450;2024-03-08T10:03:02;43.90;;;29.40;;
36817;SDS011;22761;51.542;16.450;2024-03-08T10:05:31;43.60;;;30.50;;
36817;SDS011;22761;51.542;16.450;2024-03-08T10:08:01;45.40;;;30.60;;
36817;SDS011;22761;51.542;16.450;2024-03-08T10:10:30;46.10;;;30.00;;
36817;SDS011;22761;51.542;16.450;2024-03-08T10:12:58;43.80;;;30.50;;
36817;SDS011;22761;51.542;16.450;2024-03-08T10:15:27;43.50;;;30.60;;
36817;SDS011;22761;51.542;16.450;2024-03-08T10:17:57;42.40;;;31.10;;
36817;SDS011;22761;51.542;16.450;2024-03-08T10:20:25;42.90;;;31.40;;
36817;SDS011;22761;51.542;16.450;2024-03-08T10:22:56;44.40;;;29.80;;
36817;SDS011;22761;51.542;16.450;2024-03-08T10:25:37;44.10;;;30.90;;
36817;SDS011;22761;51.542;16.450;2024-03-08T10:28:07;42.40;;;30.90;;
36817;SDS011;22761;51.542;16.450;2024-03-08T10:30:35;39.00;;;29.50;;
36817;SDS011;22761;51.542;16.450;2024-03-08T10:33:03;43.90;;;29.40;;
36817;SDS011;22761;51.542;16.450;2024-03-08T10:35:33;41.00;;;29.20;;
36817;SDS011;22761;51.542;16.450;2024-03-08T10:38:02;38.30;;;28.50;;
36817;SDS011;22761;51.542;16.450;2024-03-08T10:40:36;38.90;;;27.50;;
36817;SDS011;22761;51.542;16.450;2024-03-08T10:43:08;33.30;;;27.50;;
36817;SDS011;22761;51.542;16.450;2024-03-08T10:45:44;36.70;;;28.70;;
36817;SDS011;22761;51.542;16.450;2024-03-08T10:48:27;38.10;;;28.40;;
36817;SDS011;22761;51.542;16.450;2024-03-08T10:51:06;35.60;;;27.90;;
36817;SDS011;22761;51.542;16.450;2024-03-08T10:53:35;36.10;;;28.00;;
36817;SDS011;22761;51.542;16.450;2024-03-08T10:56:05;37.60;;;27.70;;
36817;SDS011;22761;51.542;16.450;2024-03-08T10:58:35;35.90;;;28.10;;
36817;SDS011;22761;51.542;16.450;2024-03-08T11:01:04;37.00;;;29.00;;
36817;SDS011;22761;51.542;16.450;2024-03-08T11:06:16;33.60;;;26.30;;
36817;SDS011;22761;51.542;16.450;2024-03-08T11:08:46;35.80;;;27.00;;
36817;SDS011;22761;51.542;16.450;2024-03-08T11:11:26;36.00;;;27.50;;
36817;SDS011;22761;51.542;16.450;2024-03-08T11:14:02;34.80;;;27.00;;
36817;SDS011;22761;51.542;16.450;2024-03-08T11:21:38;34.90;;;27.70;;
36817;SDS011;22761;51.542;16.450;2024-03-08T11:24:08;35.30;;;28.20;;
36817;SDS011;22761;51.542;16.450;2024-03-08T11:26:45;31.00;;;25.00;;
36817;SDS011;22761;51.542;16.450;2024-03-08T11:34:33;39.40;;;30.60;;
36817;SDS011;22761;51.542;16.450;2024-03-08T11:37:05;32.20;;;23.50;;
36817;SDS011;22761;51.542;16.450;2024-03-08T11:39:45;27.90;;;22.30;;
36817;SDS011;22761;51.542;16.450;2024-03-08T11:42:18;28.90;;;23.30;;
36817;SDS011;22761;51.542;16.450;2024-03-08T11:44:47;26.20;;;21.30;;
36817;SDS011;22761;51.542;16.450;2024-03-08T11:47:16;28.90;;;22.20;;
36817;SDS011;22761;51.542;16.450;2024-03-08T11:49:45;27.70;;;21.70;;
36817;SDS011;22761;51.542;16.450;2024-03-08T11:52:16;28.60;;;22.80;;
36817;SDS011;22761;51.542;16.450;2024-03-08T11:57:20;27.10;;;19.90;;
36817;SDS011;22761;51.542;16.450;2024-03-08T11:59:54;22.30;;;18.10;;
36817;SDS011;22761;51.542;16.450;2024-03-08T12:02:25;21.90;;;16.40;;
36817;SDS011;22761;51.542;16.450;2024-03-08T12:04:57;18.70;;;15.20;;
36817;SDS011;22761;51.542;16.450;2024-03-08T12:07:31;16.80;;;14.80;;
36817;SDS011;22761;51.542;16.450;2024-03-08T12:10:20;15.30;;;13.50;;
36817;SDS011;22761;51.542;16.450;2024-03-08T12:12:53;21.00;;;15.10;;
36817;SDS011;22761;51.542;16.450;2024-03-08T12:15:23;18.00;;;15.10;;
36817;SDS011;22761;51.542;16.450;2024-03-08T12:17:53;18.40;;;16.10;;
36817;SDS011;22761;51.542;16.450;2024-03-08T12:20:24;19.00;;;15.30;;
36817;SDS011;22761;51.542;16.450;2024-03-08T12:22:54;17.00;;;14.10;;
36817;SDS011;22761;51.542;16.450;2024-03-08T12:25:30;17.90;;;15.10;;
36817;SDS011;22761;51.542;16.450;2024-03-08T12:28:08;18.70;;;15.90;;
36817;SDS011;22761;51.542;16.450;2024-03-08T12:30:48;17.00;;;13.70;;
36817;SDS011;22761;51.542;16.450;2024-03-08T12:33:19;14.90;;;13.30;;
36817;SDS011;22761;51.542;16.450;2024-03-08T12:35:54;18.10;;;13.90;;
36817;SDS011;22761;51.542;16.450;2024-03-08T12:38:24;18.20;;;14.30;;
36817;SDS011;22761;51.542;16.450;2024-03-08T12:40:57;19.90;;;15.70;;
36817;SDS011;22761;51.542;16.450;2024-03-08T12:43:27;18.10;;;15.40;;
36817;SDS011;22761;51.542;16.450;2024-03-08T12:45:59;19.50;;;14.80;;
36817;SDS011;22761;51.542;16.450;2024-03-08T12:48:28;20.20;;;16.30;;
36817;SDS011;22761;51.542;16.450;2024-03-08T12:50:56;17.60;;;15.20;;
36817;SDS011;22761;51.542;16.450;2024-03-08T12:53:24;18.80;;;15.40;;
36817;SDS011;22761;51.542;16.450;2024-03-08T12:55:53;19.10;;;15.30;;
36817;SDS011;22761;51.542;16.450;2024-03-08T12:58:24;22.00;;;15.00;;
36817;SDS011;22761;51.542;16.450;2024-03-08T13:00:54;17.40;;;15.60;;
36817;SDS011;22761;51.542;16.450;2024-03-08T13:03:22;18.90;;;15.00;;
36817;SDS011;22761;51.542;16.450;2024-03-08T13:05:51;18.40;;;14.60;;
36817;SDS011;22761;51.542;16.450;2024-03-08T13:08:19;18.10;;;15.90;;
36817;SDS011;22761;51.542;16.450;2024-03-08T13:10:48;19.20;;;15.60;;
36817;SDS011;22761;51.542;16.450;2024-03-08T13:13:18;19.00;;;14.20;;
36817;SDS011;22761;51.542;16.450;2024-03-08T13:15:47;17.70;;;13.70;;
36817;SDS011;22761;51.542;16.450;2024-03-08T13:18:16;17.10;;;14.70;;
36817;SDS011;22761;51.542;16.450;2024-03-08T13:20:45;15.10;;;13.00;;
36817;SDS011;22761;51.542;16.450;2024-03-08T13:23:17;15.30;;;12.90;;
36817;SDS011;22761;51.542;16.450;2024-03-08T13:25:46;15.00;;;12.70;;
36817;SDS011;22761;51.542;16.450;2024-03-08T13:28:17;16.50;;;13.20;;
36817;SDS011;22761;51.542;16.450;2024-03-08T13:30:51;15.60;;;13.20;;
36817;SDS011;22761;51.542;16.450;2024-03-08T13:33:26;15.40;;;13.40;;
36817;SDS011;22761;51.542;16.450;2024-03-08T13:35:55;15.40;;;12.60;;
36817;SDS011;22761;51.542;16.450;2024-03-08T13:38:32;15.50;;;13.70;;
36817;SDS011;22761;51.542;16.450;2024-03-08T13:41:01;17.30;;;12.50;;
36817;SDS011;22761;51.542;16.450;2024-03-08T13:43:31;15.10;;;12.30;;
36817;SDS011;22761;51.542;16.450;2024-03-08T13:46:03;16.30;;;13.20;;
36817;SDS011;22761;51.542;16.450;2024-03-08T13:48:35;16.50;;;12.80;;
36817;SDS011;22761;51.542;16.450;2024-03-08T13:51:05;15.00;;;13.20;;
36817;SDS011;22761;51.542;16.450;2024-03-08T13:53:39;17.90;;;13.20;;
36817;SDS011;22761;51.542;16.450;2024-03-08T13:56:08;15.60;;;12.80;;
36817;SDS011;22761;51.542;16.450;2024-03-08T13:58:38;14.40;;;11.70;;
36817;SDS011;22761;51.542;16.450;2024-03-08T14:01:08;14.50;;;12.50;;
36817;SDS011;22761;51.542;16.450;2024-03-08T14:03:40;17.20;;;13.10;;
36817;SDS011;22761;51.542;16.450;2024-03-08T14:06:09;15.30;;;12.70;;
36817;SDS011;22761;51.542;16.450;2024-03-08T14:08:48;16.50;;;13.00;;
36817;SDS011;22761;51.542;16.450;2024-03-08T14:11:16;15.30;;;13.50;;
36817;SDS011;22761;51.542;16.450;2024-03-08T14:13:47;17.50;;;13.10;;
36817;SDS011;22761;51.542;16.450;2024-03-08T14:16:15;17.30;;;13.40;;
36817;SDS011;22761;51.542;16.450;2024-03-08T14:18:44;17.20;;;12.70;;
36817;SDS011;22761;51.542;16.450;2024-03-08T14:21:12;15.90;;;12.60;;
36817;SDS011;22761;51.542;16.450;2024-03-08T14:23:41;13.80;;;11.70;;
36817;SDS011;22761;51.542;16.450;2024-03-08T14:26:10;16.00;;;13.40;;
36817;SDS011;22761;51.542;16.450;2024-03-08T14:28:39;16.30;;;13.40;;
36817;SDS011;22761;51.542;16.450;2024-03-08T14:31:07;15.60;;;13.00;;
36817;SDS011;22761;51.542;16.450;2024-03-08T14:33:39;16.50;;;12.30;;
36817;SDS011;22761;51.542;16.450;2024-03-08T14:36:10;14.60;;;11.50;;
36817;SDS011;22761;51.542;16.450;2024-03-08T14:38:41;14.40;;;11.40;;
36817;SDS011;22761;51.542;16.450;2024-03-08T14:41:09;14.20;;;11.20;;
36817;SDS011;22761;51.542;16.450;2024-03-08T14:43:38;18.10;;;14.00;;
36817;SDS011;22761;51.542;16.450;2024-03-08T14:46:06;15.40;;;12.20;;
36817;SDS011;22761;51.542;16.450;2024-03-08T14:48:35;16.10;;;13.30;;
36817;SDS011;22761;51.542;16.450;2024-03-08T14:51:05;15.60;;;12.80;;
36817;SDS011;22761;51.542;16.450;2024-03-08T14:53:36;17.50;;;13.50;;
36817;SDS011;22761;51.542;16.450;2024-03-08T14:56:08;18.80;;;13.00;;
36817;SDS011;22761;51.542;16.450;2024-03-08T14:58:37;17.20;;;13.30;;
36817;SDS011;22761;51.542;16.450;2024-03-08T15:01:06;15.60;;;12.20;;
36817;SDS011;22761;51.542;16.450;2024-03-08T15:03:36;14.20;;;11.70;;
36817;SDS011;22761;51.542;16.450;2024-03-08T15:06:05;19.10;;;13.50;;
36817;SDS011;22761;51.542;16.450;2024-03-08T15:08:36;17.30;;;12.40;;
36817;SDS011;22761;51.542;16.450;2024-03-08T15:11:05;15.60;;;12.70;;
36817;SDS011;22761;51.542;16.450;2024-03-08T15:13:35;15.50;;;12.80;;
36817;SDS011;22761;51.542;16.450;2024-03-08T15:16:10;16.30;;;13.00;;
36817;SDS011;22761;51.542;16.450;2024-03-08T15:18:46;19.20;;;12.50;;
36817;SDS011;22761;51.542;16.450;2024-03-08T15:21:19;18.20;;;12.90;;
36817;SDS011;22761;51.542;16.450;2024-03-08T15:23:47;15.90;;;12.40;;
36817;SDS011;22761;51.542;16.450;2024-03-08T15:26:20;21.50;;;14.20;;
36817;SDS011;22761;51.542;16.450;2024-03-08T15:28:48;24.30;;;14.50;;
36817;SDS011;22761;51.542;16.450;2024-03-08T15:31:20;21.20;;;13.50;;
36817;SDS011;22761;51.542;16.450;2024-03-08T15:33:51;19.10;;;13.90;;
36817;SDS011;22761;51.542;16.450;2024-03-08T15:36:27;18.80;;;13.20;;
36817;SDS011;22761;51.542;16.450;2024-03-08T15:39:00;17.70;;;12.70;;
36817;SDS011;22761;51.542;16.450;2024-03-08T15:41:28;18.70;;;13.80;;
36817;SDS011;22761;51.542;16.450;2024-03-08T15:43:57;18.30;;;12.70;;